Buffalo, New York
Current Conditions -  °F | °C
As of 7:54 AM on Friday 28 Nov 2014 (Local Time) from KBUF Reporting Station
Broken Clouds Broken Clouds  
Wind Chill: -13°   Ceiling: 4300
Heat Index: -6°   Visibility: 10mi
Dew Point: -11°   Wind: 12mph
Humidity: 68%   Direction: 270°W
Pressure: 30.25"   Gusts: 21mph
Location:  42.89°N, 78.88°W
Report Text: KBUF 281254Z 27010G18KT 10SM BKN043 BKN100 M06/M11 A3025 RMK AO2 SNE08 SLP254 P0000 T10611111
Loading
Personal Weather Stations






























Interactive Weather Map New forecast layout! Learn more

10-Day Weather Forecast

Advertisements
Track Severe Weather on mobile